createdAt,value
2018-09-06T00:04:37.527Z,6.37
2018-09-06T00:09:40.819Z,6.90
2018-09-06T00:14:44.109Z,7.53
2018-09-06T00:19:47.405Z,6.37
2018-09-06T00:24:50.683Z,7.40
2018-09-06T00:29:54.013Z,7.13
2018-09-06T00:34:57.339Z,7.20
2018-09-06T00:40:00.618Z,6.90
2018-09-06T00:45:04.285Z,7.00
2018-09-06T00:50:12.886Z,6.83
2018-09-06T00:55:16.540Z,6.90
2018-09-06T01:00:19.880Z,7.30
2018-09-06T01:05:23.280Z,8.17
2018-09-06T01:10:26.701Z,6.73
2018-09-06T01:15:29.976Z,6.47
2018-09-06T01:20:33.566Z,7.47
2018-09-06T01:25:42.421Z,7.23
2018-09-06T01:30:45.913Z,7.50
2018-09-06T01:35:54.789Z,7.63
2018-09-06T01:40:58.380Z,7.30
2018-09-06T01:46:02.038Z,7.63
2018-09-06T01:51:05.585Z,7.10
2018-09-06T01:56:09.159Z,7.77
2018-09-06T02:01:12.707Z,7.50
2018-09-06T02:06:16.286Z,6.50
2018-09-06T02:11:19.896Z,7.90
2018-09-06T02:16:23.538Z,7.70
2018-09-06T02:21:27.025Z,7.47
2018-09-06T02:31:39.940Z,7.03
2018-09-06T02:36:43.522Z,7.63
2018-09-06T02:41:47.205Z,7.10
2018-09-06T02:46:50.777Z,6.87
2018-09-06T02:51:54.353Z,7.20
2018-09-06T02:56:57.883Z,7.80
2018-09-06T03:02:01.444Z,7.17
2018-09-06T03:07:04.951Z,8.40
2018-09-06T03:12:09.630Z,7.20
2018-09-06T03:17:13.297Z,8.40
2018-09-06T03:22:16.949Z,7.80
2018-09-06T03:27:20.676Z,7.53
2018-09-06T03:32:24.141Z,7.90
2018-09-06T03:37:27.753Z,8.20
2018-09-06T03:42:31.321Z,7.63
2018-09-06T03:47:36.517Z,8.20
2018-09-06T03:52:40.633Z,8.03
2018-09-06T03:57:44.262Z,6.70
2018-09-06T04:02:47.775Z,7.80
2018-09-06T04:07:51.513Z,7.70
2018-09-06T04:12:54.996Z,7.17
2018-09-06T04:18:02.428Z,7.70
2018-09-06T04:23:23.608Z,7.90
2018-09-06T04:28:29.462Z,8.00
2018-09-06T04:33:46.295Z,7.00
2018-09-06T04:38:59.166Z,7.70
2018-09-06T04:44:02.814Z,8.57
2018-09-06T04:49:06.537Z,8.43
2018-09-06T04:54:41.057Z,7.47
2018-09-06T04:59:46.001Z,8.27
2018-09-06T05:04:50.248Z,8.90
2018-09-06T05:09:53.930Z,7.97
2018-09-06T05:14:58.753Z,8.33
2018-09-06T05:20:03.905Z,9.00
2018-09-06T05:25:07.341Z,8.43
2018-09-06T05:30:10.777Z,9.33
2018-09-06T05:35:14.556Z,9.40
2018-09-06T05:40:18.277Z,8.80
2018-09-06T05:45:21.697Z,9.50
2018-09-06T05:50:26.676Z,10.53
2018-09-06T05:55:30.080Z,8.60
2018-09-06T06:00:38.934Z,10.10
2018-09-06T06:05:44.879Z,9.70
2018-09-06T06:10:48.394Z,11.03
2018-09-06T06:15:52.075Z,10.10
2018-09-06T06:20:55.490Z,10.50
2018-09-06T06:25:59.041Z,9.87
2018-09-06T06:31:02.444Z,9.77
2018-09-06T06:36:06.024Z,10.00
2018-09-06T06:41:09.420Z,10.50
2018-09-06T06:46:12.904Z,10.03
2018-09-06T06:51:16.341Z,10.27
2018-09-06T06:56:19.841Z,11.23
2018-09-06T07:01:23.129Z,10.63
2018-09-06T07:06:26.397Z,11.20
2018-09-06T07:11:30.780Z,11.80
2018-09-06T07:16:34.198Z,10.40
2018-09-06T07:21:37.569Z,10.43
2018-09-06T07:26:40.963Z,10.43
2018-09-06T07:31:44.347Z,9.67
2018-09-06T07:36:47.820Z,10.03
2018-09-06T07:41:51.214Z,10.00
2018-09-06T07:46:54.610Z,9.80
2018-09-06T07:51:57.998Z,9.87
2018-09-06T07:57:01.461Z,8.40
2018-09-06T08:02:05.753Z,9.47
2018-09-06T08:07:09.215Z,10.63
2018-09-06T08:12:12.851Z,8.57
2018-09-06T08:17:16.163Z,10.00
2018-09-06T08:22:19.536Z,8.97
2018-09-06T08:27:22.926Z,9.30
2018-09-06T08:32:26.328Z,8.60
2018-09-06T08:37:29.746Z,9.20
2018-09-06T08:42:33.120Z,10.50
2018-09-06T08:47:36.595Z,9.13
2018-09-06T08:52:39.956Z,8.07
2018-09-06T08:57:43.400Z,8.90
2018-09-06T09:02:46.953Z,10.20
2018-09-06T09:07:50.248Z,8.53
2018-09-06T09:12:53.625Z,9.80
2018-09-06T09:17:57.046Z,9.27
2018-09-06T09:23:00.447Z,8.47
2018-09-06T09:28:03.709Z,8.90
2018-09-06T09:33:07.225Z,9.27
2018-09-06T09:38:10.612Z,7.87
2018-09-06T09:43:13.882Z,8.77
2018-09-06T09:48:17.135Z,11.60
2018-09-06T09:53:20.404Z,9.80
2018-09-06T09:58:23.743Z,7.80
2018-09-06T10:03:33.003Z,8.60
2018-09-06T10:08:41.701Z,7.07
2018-09-06T10:13:45.054Z,6.57
2018-09-06T10:18:48.484Z,8.03
2018-09-06T10:23:55.288Z,6.30
2018-09-06T10:28:58.638Z,7.30
2018-09-06T10:34:02.077Z,7.13
2018-09-06T10:39:07.849Z,7.23
2018-09-06T10:44:11.248Z,6.60
2018-09-06T10:49:14.620Z,6.70
2018-09-06T10:54:18.213Z,6.50
2018-09-06T10:59:21.469Z,6.80
2018-09-06T11:04:25.110Z,4.93
2018-09-06T11:09:28.534Z,5.70
2018-09-06T11:14:32.009Z,6.60
2018-09-06T11:19:35.393Z,6.03
2018-09-06T11:24:38.785Z,5.83
2018-09-06T11:29:42.232Z,6.50
2018-09-06T11:34:45.624Z,5.70
2018-09-06T11:39:49.022Z,6.30
2018-09-06T11:44:52.326Z,6.00
2018-09-06T11:49:55.633Z,7.70
2018-09-06T11:54:59.066Z,5.77
2018-09-06T12:00:02.473Z,6.47
2018-09-06T12:05:05.878Z,6.47
2018-09-06T12:10:09.285Z,6.10
2018-09-06T12:15:12.664Z,5.63
2018-09-06T12:20:16.248Z,5.50
2018-09-06T12:25:19.581Z,6.37
2018-09-06T12:30:23.551Z,6.17
2018-09-06T12:35:27.048Z,6.37
2018-09-06T12:40:30.441Z,9.00
2018-09-06T12:45:33.808Z,8.17
2018-09-06T12:50:37.064Z,10.90
2018-09-06T12:55:40.792Z,8.57
2018-09-06T13:00:44.056Z,7.70
2018-09-06T13:05:47.255Z,10.27
2018-09-06T13:10:50.632Z,7.30
2018-09-06T13:15:53.908Z,7.73
2018-09-06T13:20:57.193Z,8.03
2018-09-06T13:26:00.443Z,8.47
2018-09-06T13:31:03.732Z,8.10
2018-09-06T13:36:06.975Z,9.07
2018-09-06T13:41:10.223Z,8.20
2018-09-06T13:46:13.469Z,8.10
2018-09-06T13:51:16.717Z,12.20
2018-09-06T13:56:20.024Z,6.50
2018-09-06T14:01:23.320Z,8.53
2018-09-06T14:06:26.689Z,9.50
2018-09-06T14:11:29.992Z,11.40
2018-09-06T14:16:33.263Z,11.20
2018-09-06T14:21:36.493Z,10.57
2018-09-06T14:26:39.996Z,8.63
2018-09-06T14:31:43.525Z,7.47
2018-09-06T14:36:46.875Z,10.07
2018-09-06T14:41:50.198Z,14.40
2018-09-06T14:46:53.809Z,12.13
2018-09-06T14:51:57.153Z,14.43
2018-09-06T14:57:00.504Z,9.70
2018-09-06T15:02:03.833Z,10.17
2018-09-06T15:07:07.137Z,10.50
2018-09-06T15:12:10.436Z,14.80
2018-09-06T15:17:20.300Z,12.70
2018-09-06T15:22:24.521Z,11.03
2018-09-06T15:27:27.826Z,16.93
2018-09-06T15:32:31.703Z,11.10
2018-09-06T15:37:35.026Z,10.67
2018-09-06T15:42:38.328Z,12.60
2018-09-06T15:47:41.559Z,15.57
2018-09-06T15:52:44.836Z,18.37
2018-09-06T15:57:48.073Z,20.13
2018-09-06T16:02:51.304Z,19.10
2018-09-06T16:07:54.589Z,13.63
2018-09-06T16:12:57.823Z,10.97
2018-09-06T16:18:02.044Z,10.60
2018-09-06T16:23:06.331Z,8.53
2018-09-06T16:28:10.389Z,12.67
2018-09-06T16:33:13.622Z,8.60
2018-09-06T16:38:16.945Z,8.20
2018-09-06T16:43:20.151Z,10.43
2018-09-06T16:48:23.388Z,8.07
2018-09-06T16:53:26.635Z,7.70
2018-09-06T16:58:29.886Z,8.53
2018-09-06T17:03:33.128Z,8.13
2018-09-06T17:08:36.376Z,8.20
2018-09-06T17:13:39.634Z,8.00
2018-09-06T17:18:42.955Z,8.70
2018-09-06T17:23:46.183Z,7.77
2018-09-06T17:28:49.479Z,8.87
2018-09-06T17:33:52.726Z,10.20
2018-09-06T17:38:56.069Z,10.23
2018-09-06T17:43:59.273Z,9.73
2018-09-06T17:49:02.721Z,9.97
2018-09-06T17:54:06.047Z,9.50
2018-09-06T17:59:09.296Z,10.87
2018-09-06T18:04:12.524Z,11.13
2018-09-06T18:09:15.817Z,10.50
2018-09-06T18:14:19.072Z,10.77
2018-09-06T18:19:22.427Z,10.03
2018-09-06T18:24:25.727Z,9.87
2018-09-06T18:29:28.974Z,11.70
2018-09-06T18:34:32.255Z,12.50
2018-09-06T18:39:35.595Z,11.97
2018-09-06T18:44:38.839Z,11.47
2018-09-06T18:49:42.174Z,12.90
2018-09-06T18:54:45.392Z,13.90
2018-09-06T18:59:48.637Z,13.17
2018-09-06T19:04:52.199Z,14.50
2018-09-06T19:09:55.460Z,14.10
2018-09-06T19:14:58.744Z,15.60
2018-09-06T19:20:02.321Z,15.80
2018-09-06T19:25:05.571Z,15.17
2018-09-06T19:30:13.267Z,13.93
2018-09-06T19:35:18.806Z,15.13
2018-09-06T19:40:22.268Z,14.20
2018-09-06T19:45:25.583Z,14.70
2018-09-06T19:50:28.824Z,14.97
2018-09-06T19:55:32.070Z,14.47
2018-09-06T20:00:35.428Z,15.40
2018-09-06T20:05:38.667Z,18.27
2018-09-06T20:10:41.932Z,17.97
2018-09-06T20:15:45.281Z,20.07
2018-09-06T20:20:48.523Z,18.53
2018-09-06T20:25:51.772Z,21.00
2018-09-06T20:30:55.034Z,22.50
2018-09-06T20:35:58.308Z,21.70
2018-09-06T20:41:01.558Z,24.97
2018-09-06T20:46:05.217Z,23.60
2018-09-06T20:51:08.473Z,23.00
2018-09-06T20:56:11.755Z,23.63
2018-09-06T21:01:15.009Z,22.27
2018-09-06T21:06:18.290Z,22.53
2018-09-06T21:11:21.551Z,24.70
2018-09-06T21:16:24.889Z,25.90
2018-09-06T21:21:28.091Z,29.70
2018-09-06T21:26:31.352Z,31.10
2018-09-06T21:31:34.612Z,32.40
2018-09-06T21:36:37.852Z,33.00
2018-09-06T21:41:42.220Z,32.50
2018-09-06T21:46:45.476Z,31.93
2018-09-06T21:51:48.716Z,27.07
2018-09-06T21:56:51.959Z,28.20
2018-09-06T22:01:55.218Z,24.17
2018-09-06T22:06:58.471Z,22.93
2018-09-06T22:12:01.724Z,21.10
2018-09-06T22:17:04.999Z,19.20
2018-09-06T22:22:08.234Z,16.90
2018-09-06T22:27:11.547Z,15.80
2018-09-06T22:32:14.767Z,15.70
2018-09-06T22:37:18.038Z,13.90
2018-09-06T22:42:21.272Z,13.00
2018-09-06T22:47:24.510Z,11.50
2018-09-06T22:52:28.044Z,10.27
2018-09-06T22:57:31.284Z,10.47
2018-09-06T23:02:39.843Z,9.00
2018-09-06T23:07:43.115Z,9.27
2018-09-06T23:12:46.355Z,9.50
2018-09-06T23:17:49.623Z,7.63
2018-09-06T23:22:52.904Z,8.50
2018-09-06T23:27:56.156Z,8.13
2018-09-06T23:32:59.408Z,7.00
2018-09-06T23:38:02.644Z,6.40
2018-09-06T23:43:05.936Z,5.67
2018-09-06T23:48:09.204Z,6.70
2018-09-06T23:53:12.464Z,7.33
2018-09-06T23:58:15.776Z,6.23
